KPBI/PBI METAR and TAF weather

Enter ICAO airport designator
Station Type Date Time Source
KPBI METAR 2019/06/26 17:53 UTC NOAA

KPBI 261753Z 06009KT 10SM SCT037TCU SCT210 34/24 A3008 RMK AO2 SLP184 TCU OHD NW T03390239 10350 20289 58009 $


Station Type Date Time Source
KPBI Decoded METAR 2019/06/26 17:53 UTC NOAA

PALM BEACH INTERNATIONAL, FL, United States (KPBI) 26-41N 80-06W 6M
Jun 26, 2019 - 01:53 PM EDT / 2019.06.26 1753 UTC
Wind: from the ENE (060 degrees) at 10 MPH (9 KT):0
Visibility: 10 mile(s):0
Sky conditions: partly cloudy
Weather: Towering cumulus clouds observed
Temperature: 93.0 F (33.9 C)
Heat index: 104.5 F (40.3 C):1
Dew Point: 75.0 F (23.9 C)
Relative Humidity: 56%
Pressure (altimeter): 30.08 in. Hg (1018 hPa)
Pressure tendency: 0.03 inches (0.9 hPa) lower than three hours ago
ob: KPBI 261753Z 06009KT 10SM SCT037TCU SCT210 34/24 A3008 RMK AO2 SLP184 TCU OHD NW T03390239 10350 20289 58009
cycle: 18

Station Type Date Time Source
KPBI TAF 2019/06/26 18:45 UTC NOAA

TAF KPBI 261741Z 2618/2718 08010KT P6SM VCTS SCT025CB BKN050
FM270100 07006KT P6SM FEW035
FM271400 08008KT P6SM FEW250

Example: see airport list